createdAt,value
2023-05-03T00:01:01.570Z,5.00
2023-05-03T00:03:53.547Z,5.00
2023-05-03T00:06:44.221Z,5.00
2023-05-03T00:09:34.694Z,4.90
2023-05-03T00:12:23.341Z,4.90
2023-05-03T00:15:12.867Z,4.90
2023-05-03T00:18:03.052Z,4.90
2023-05-03T00:20:51.819Z,4.80
2023-05-03T00:23:40.482Z,4.80
2023-05-03T00:26:29.642Z,4.70
2023-05-03T00:29:19.070Z,4.70
2023-05-03T00:32:07.874Z,4.60
2023-05-03T00:34:58.407Z,4.60
2023-05-03T00:37:47.089Z,4.60
2023-05-03T00:40:35.826Z,4.60
2023-05-03T00:43:24.505Z,4.50
2023-05-03T00:46:17.427Z,4.50
2023-05-03T00:49:06.634Z,4.50
2023-05-03T00:51:59.366Z,4.50
2023-05-03T00:54:48.235Z,4.40
2023-05-03T00:57:36.970Z,4.40
2023-05-03T01:00:25.926Z,4.40
2023-05-03T01:03:15.184Z,4.40
2023-05-03T01:06:11.889Z,4.40
2023-05-03T01:09:06.641Z,4.40
2023-05-03T01:12:06.378Z,4.40
2023-05-03T01:15:04.143Z,4.40
2023-05-03T01:17:59.517Z,4.40
2023-05-03T01:20:49.895Z,4.40
2023-05-03T01:23:52.140Z,4.30
2023-05-03T01:26:42.303Z,4.30
2023-05-03T01:29:31.169Z,4.30
2023-05-03T01:32:28.021Z,4.20
2023-05-03T01:35:24.786Z,4.20
2023-05-03T01:38:14.535Z,4.20
2023-05-03T01:41:07.671Z,4.10
2023-05-03T01:43:59.744Z,4.10
2023-05-03T01:46:49.826Z,4.00
2023-05-03T01:49:38.625Z,4.00
2023-05-03T01:52:27.721Z,4.00
2023-05-03T01:55:16.509Z,4.00
2023-05-03T01:58:05.199Z,4.00
2023-05-03T02:00:55.630Z,3.90
2023-05-03T02:03:44.306Z,3.90
2023-05-03T02:06:33.081Z,3.80
2023-05-03T02:09:21.903Z,3.80
2023-05-03T02:12:11.565Z,3.80
2023-05-03T02:15:00.335Z,3.80
2023-05-03T02:17:51.061Z,3.70
2023-05-03T02:20:39.760Z,3.60
2023-05-03T02:23:28.433Z,3.60
2023-05-03T02:26:17.109Z,3.50
2023-05-03T02:29:07.480Z,3.40
2023-05-03T02:31:56.172Z,3.40
2023-05-03T02:34:50.090Z,3.40
2023-05-03T02:37:38.787Z,3.30
2023-05-03T02:40:27.515Z,3.30
2023-05-03T02:43:16.289Z,3.20
2023-05-03T02:46:05.600Z,3.20
2023-05-03T02:48:54.275Z,3.20
2023-05-03T02:51:44.382Z,3.20
2023-05-03T02:54:33.097Z,3.10
2023-05-03T02:57:21.748Z,3.10
2023-05-03T03:00:15.420Z,3.10
2023-05-03T03:03:04.337Z,3.10
2023-05-03T03:05:53.066Z,3.10
2023-05-03T03:08:43.133Z,3.10
2023-05-03T03:11:31.898Z,3.00
2023-05-03T03:14:20.603Z,2.90
2023-05-03T03:17:10.145Z,2.90
2023-05-03T03:19:59.571Z,2.90
2023-05-03T03:22:48.247Z,2.90
2023-05-03T03:25:38.364Z,2.90
2023-05-03T03:28:27.032Z,2.80
2023-05-03T03:31:15.774Z,2.80
2023-05-03T03:34:04.497Z,2.80
2023-05-03T03:36:53.267Z,2.80
2023-05-03T03:39:41.948Z,2.70
2023-05-03T03:42:32.101Z,2.70
2023-05-03T03:45:20.867Z,2.80
2023-05-03T03:48:09.602Z,2.70
2023-05-03T03:50:58.418Z,2.70
2023-05-03T03:53:47.066Z,2.70
2023-05-03T03:56:35.803Z,2.70
2023-05-03T03:59:26.402Z,2.70
2023-05-03T04:02:15.116Z,2.70
2023-05-03T04:05:04.617Z,2.60
2023-05-03T04:07:53.300Z,2.60
2023-05-03T04:10:42.036Z,2.50
2023-05-03T04:13:30.687Z,2.50
2023-05-03T04:16:20.903Z,2.50
2023-05-03T04:19:09.630Z,2.50
2023-05-03T04:21:58.382Z,2.50
2023-05-03T04:24:48.027Z,2.50
2023-05-03T04:27:38.363Z,2.60
2023-05-03T04:30:27.072Z,2.60
2023-05-03T04:33:17.124Z,2.70
2023-05-03T04:36:06.321Z,2.70
2023-05-03T04:38:54.971Z,2.80
2023-05-03T04:41:43.685Z,2.80
2023-05-03T04:44:32.820Z,2.90
2023-05-03T04:47:21.826Z,2.90
2023-05-03T04:50:12.392Z,3.00
2023-05-03T04:53:01.475Z,3.00
2023-05-03T04:55:50.738Z,3.10
2023-05-03T04:58:39.386Z,3.20
2023-05-03T05:01:28.713Z,3.20
2023-05-03T05:04:17.444Z,3.30
2023-05-03T05:07:07.862Z,3.40
2023-05-03T05:09:56.575Z,3.40
2023-05-03T05:12:45.324Z,3.50
2023-05-03T05:15:34.016Z,3.60
2023-05-03T05:18:22.704Z,3.60
2023-05-03T05:21:11.778Z,3.60
2023-05-03T05:24:02.055Z,3.70
2023-05-03T05:26:51.110Z,3.70
2023-05-03T05:29:39.803Z,3.80
2023-05-03T05:32:28.685Z,4.00
2023-05-03T05:35:19.066Z,4.10
2023-05-03T05:38:07.945Z,4.20
2023-05-03T05:40:58.569Z,4.40
2023-05-03T05:43:47.232Z,4.80
2023-05-03T05:46:35.972Z,5.40
2023-05-03T05:49:24.672Z,5.80
2023-05-03T05:52:13.433Z,6.20
2023-05-03T05:55:02.083Z,6.50
2023-05-03T05:57:52.231Z,6.70
2023-05-03T06:00:41.161Z,6.80
2023-05-03T06:03:30.094Z,6.90
2023-05-03T06:06:18.907Z,6.80
2023-05-03T06:09:20.752Z,6.80
2023-05-03T06:12:13.322Z,6.70
2023-05-03T06:15:03.611Z,6.80
2023-05-03T06:17:52.392Z,6.80
2023-05-03T06:20:41.199Z,7.00
2023-05-03T06:23:29.970Z,7.10
2023-05-03T06:26:18.670Z,7.50
2023-05-03T06:29:07.323Z,7.70
2023-05-03T06:31:57.444Z,8.00
2023-05-03T06:34:46.340Z,8.30
2023-05-03T06:37:35.187Z,8.40
2023-05-03T06:40:25.680Z,8.50
2023-05-03T06:43:14.520Z,8.50
2023-05-03T06:46:03.528Z,8.80
2023-05-03T06:48:56.362Z,8.90
2023-05-03T06:51:45.109Z,8.70
2023-05-03T06:54:33.806Z,8.80
2023-05-03T06:57:22.978Z,8.80
2023-05-03T07:00:12.575Z,8.90
2023-05-03T07:03:01.684Z,9.10
2023-05-03T07:05:52.185Z,9.20
2023-05-03T07:08:40.878Z,9.10
2023-05-03T07:11:29.564Z,9.10
2023-05-03T07:14:18.348Z,9.10
2023-05-03T07:17:07.469Z,9.10
2023-05-03T07:19:56.426Z,9.20
2023-05-03T07:22:46.762Z,9.10
2023-05-03T07:25:35.588Z,9.00
2023-05-03T07:28:24.515Z,9.00
2023-05-03T07:31:13.916Z,9.10
2023-05-03T07:34:02.656Z,9.30
2023-05-03T07:36:52.135Z,9.30
2023-05-03T07:39:43.485Z,9.50
2023-05-03T07:42:33.656Z,9.50
2023-05-03T07:45:23.209Z,9.50
2023-05-03T07:48:11.951Z,9.50
2023-05-03T07:51:00.696Z,9.50
2023-05-03T07:53:49.383Z,9.60
2023-05-03T07:56:39.486Z,9.80
2023-05-03T07:59:28.214Z,10.00
2023-05-03T08:02:29.322Z,10.30
2023-05-03T08:05:30.078Z,10.40
2023-05-03T08:08:43.412Z,10.60
2023-05-03T08:11:46.130Z,10.80
2023-05-03T08:14:42.098Z,11.10
2023-05-03T08:17:31.151Z,11.00
2023-05-03T08:20:21.104Z,11.10
2023-05-03T08:23:11.307Z,11.40
2023-05-03T08:26:00.445Z,11.40
2023-05-03T08:28:49.176Z,11.70
2023-05-03T08:31:39.847Z,12.10
2023-05-03T08:34:28.637Z,12.30
2023-05-03T08:37:17.372Z,12.40
2023-05-03T08:40:07.597Z,12.70
2023-05-03T08:42:57.851Z,12.90
2023-05-03T08:45:46.824Z,12.80
2023-05-03T08:48:37.039Z,12.90
2023-05-03T08:51:27.792Z,13.00
2023-05-03T08:54:18.135Z,13.10
2023-05-03T08:57:11.934Z,13.10
2023-05-03T09:00:02.001Z,13.50
2023-05-03T09:02:51.874Z,13.80
2023-05-03T09:05:44.430Z,13.40
2023-05-03T09:08:43.694Z,13.20
2023-05-03T09:11:33.975Z,13.00
2023-05-03T09:14:22.664Z,12.90
2023-05-03T09:17:21.683Z,13.40
2023-05-03T09:20:11.841Z,13.30
2023-05-03T09:23:02.019Z,13.40
2023-05-03T09:25:52.131Z,13.80
2023-05-03T09:28:44.265Z,14.10
2023-05-03T09:31:34.411Z,14.00
2023-05-03T09:34:23.489Z,14.20
2023-05-03T09:37:14.190Z,14.50
2023-05-03T09:40:24.634Z,14.80
2023-05-03T09:46:12.941Z,14.30
2023-05-03T09:49:01.928Z,14.20
2023-05-03T09:51:50.795Z,14.10
2023-05-03T09:54:39.929Z,14.00
2023-05-03T09:57:31.068Z,14.10
2023-05-03T10:00:20.818Z,14.30
2023-05-03T10:03:11.415Z,14.50
2023-05-03T10:06:04.246Z,14.70
2023-05-03T10:08:57.466Z,14.80
2023-05-03T10:11:51.473Z,14.80
2023-05-03T10:14:43.506Z,15.30
2023-05-03T10:17:48.042Z,15.90
2023-05-03T10:20:41.463Z,16.40
2023-05-03T10:23:30.217Z,16.30
2023-05-03T10:26:18.921Z,15.80
2023-05-03T10:29:08.569Z,15.50
2023-05-03T10:31:58.736Z,15.50
2023-05-03T10:34:47.499Z,15.30
2023-05-03T10:37:38.213Z,15.20
2023-05-03T10:40:43.344Z,15.20
2023-05-03T10:43:46.739Z,15.40
2023-05-03T10:46:36.588Z,15.30
2023-05-03T10:49:27.635Z,15.00
2023-05-03T10:52:47.267Z,14.80
2023-05-03T10:55:36.078Z,14.80
2023-05-03T10:58:24.850Z,15.00
2023-05-03T11:01:16.384Z,15.10
2023-05-03T11:04:11.071Z,15.40
2023-05-03T11:25:41.838Z,15.10
2023-05-03T11:28:30.505Z,15.00
2023-05-03T11:31:19.499Z,15.00
2023-05-03T11:34:08.942Z,15.00
2023-05-03T11:36:59.936Z,14.90
2023-05-03T11:39:48.728Z,14.90
2023-05-03T11:42:52.459Z,15.10
2023-05-03T11:45:44.295Z,15.20
2023-05-03T11:48:33.581Z,15.30
2023-05-03T11:51:23.928Z,15.80
2023-05-03T11:57:14.943Z,16.30
2023-05-03T12:00:17.261Z,17.00
2023-05-03T12:03:06.233Z,17.90
2023-05-03T12:05:55.288Z,18.30
2023-05-03T12:08:45.243Z,18.40
2023-05-03T12:11:44.234Z,18.50
2023-05-03T12:14:58.718Z,19.20
2023-05-03T12:17:50.354Z,20.40
2023-05-03T12:23:34.271Z,21.40
2023-05-03T12:26:23.512Z,21.90
2023-05-03T12:29:12.667Z,22.30
2023-05-03T12:32:03.805Z,22.30
2023-05-03T12:34:57.526Z,22.50
2023-05-03T12:37:49.440Z,22.20
2023-05-03T12:40:39.733Z,22.30
2023-05-03T12:43:28.667Z,23.20
2023-05-03T12:46:33.825Z,23.30
2023-05-03T12:49:24.165Z,23.70
2023-05-03T12:55:11.068Z,23.30
2023-05-03T13:04:04.855Z,23.50
2023-05-03T13:07:00.252Z,22.60
2023-05-03T13:12:42.847Z,20.20
2023-05-03T13:15:31.767Z,20.20
2023-05-03T13:18:20.695Z,20.80
2023-05-03T13:21:09.457Z,21.40
2023-05-03T13:23:58.889Z,21.90
2023-05-03T13:26:49.007Z,22.30
2023-05-03T13:29:37.795Z,22.10
2023-05-03T13:32:26.535Z,22.20
2023-05-03T13:35:15.407Z,22.40
2023-05-03T13:38:04.146Z,22.70
2023-05-03T13:40:53.555Z,22.70
2023-05-03T13:43:43.874Z,23.10
2023-05-03T13:46:32.748Z,23.40
2023-05-03T13:49:21.738Z,23.70
2023-05-03T13:52:10.797Z,23.90
2023-05-03T13:55:00.642Z,23.80
2023-05-03T13:57:49.349Z,23.50
2023-05-03T14:00:39.812Z,23.80
2023-05-03T14:03:28.844Z,23.20
2023-05-03T14:06:17.711Z,22.50
2023-05-03T14:09:06.710Z,22.20
2023-05-03T14:11:57.478Z,21.70
2023-05-03T14:14:46.647Z,22.10
2023-05-03T14:17:36.801Z,22.70
2023-05-03T14:20:25.708Z,22.70
2023-05-03T14:23:14.411Z,22.50
2023-05-03T14:26:05.111Z,22.40
2023-05-03T14:28:53.800Z,22.00
2023-05-03T14:31:42.492Z,22.00
2023-05-03T14:34:32.667Z,21.90
2023-05-03T14:37:21.523Z,21.80
2023-05-03T14:40:11.343Z,21.60
2023-05-03T14:43:00.009Z,21.10
2023-05-03T14:45:49.431Z,21.10
2023-05-03T14:48:45.387Z,20.90
2023-05-03T14:51:35.521Z,20.60
2023-05-03T14:54:24.293Z,20.60
2023-05-03T14:57:12.954Z,20.30
2023-05-03T15:00:03.391Z,20.20
2023-05-03T15:02:56.103Z,20.20
2023-05-03T15:05:46.641Z,19.70
2023-05-03T15:08:36.926Z,19.30
2023-05-03T15:11:25.636Z,19.20
2023-05-03T15:14:14.382Z,19.20
2023-05-03T15:17:03.208Z,19.10
2023-05-03T15:19:52.881Z,18.60
2023-05-03T15:22:41.559Z,17.90
2023-05-03T15:25:31.830Z,17.40
2023-05-03T15:28:21.201Z,17.20
2023-05-03T15:31:11.223Z,16.90
2023-05-03T15:34:02.527Z,16.90
2023-05-03T15:36:51.481Z,17.00
2023-05-03T15:39:40.141Z,17.00
2023-05-03T15:42:30.247Z,16.80
2023-05-03T15:45:19.427Z,16.70
2023-05-03T15:48:08.256Z,16.70
2023-05-03T15:50:56.945Z,16.50
2023-05-03T15:53:45.627Z,16.50
2023-05-03T15:56:34.382Z,16.40
2023-05-03T15:59:24.512Z,16.40
2023-05-03T16:02:13.192Z,16.40
2023-05-03T16:05:01.994Z,16.30
2023-05-03T16:07:51.005Z,16.20
2023-05-03T16:10:39.748Z,16.10
2023-05-03T16:13:28.707Z,16.00
2023-05-03T16:16:18.932Z,16.00
2023-05-03T16:19:08.878Z,16.00
2023-05-03T16:21:57.620Z,15.90
2023-05-03T16:24:46.988Z,15.90
2023-05-03T16:27:35.815Z,15.90
2023-05-03T16:30:24.488Z,15.90
2023-05-03T16:33:14.604Z,15.90
2023-05-03T16:36:03.349Z,15.80
2023-05-03T16:38:52.013Z,15.70
2023-05-03T16:41:41.231Z,15.70
2023-05-03T16:44:30.017Z,15.60
2023-05-03T16:47:18.793Z,15.60
2023-05-03T16:50:10.525Z,15.50
2023-05-03T16:52:59.215Z,15.50
2023-05-03T16:55:47.982Z,15.50
2023-05-03T16:58:36.669Z,15.50
2023-05-03T17:01:25.411Z,15.40
2023-05-03T17:04:15.357Z,15.40
2023-05-03T17:07:05.463Z,15.30
2023-05-03T17:09:54.163Z,15.30
2023-05-03T17:12:42.859Z,15.20
2023-05-03T17:15:32.932Z,15.10
2023-05-03T17:18:21.642Z,15.10
2023-05-03T17:21:10.967Z,15.00
2023-05-03T17:24:01.135Z,15.00
2023-05-03T17:26:49.778Z,15.00
2023-05-03T17:29:38.487Z,14.90
2023-05-03T17:32:27.325Z,14.80
2023-05-03T17:35:16.207Z,14.80
2023-05-03T17:38:05.387Z,14.70
2023-05-03T17:40:55.800Z,14.60
2023-05-03T17:43:44.815Z,14.50
2023-05-03T17:46:35.075Z,14.50
2023-05-03T17:49:24.344Z,14.40
2023-05-03T17:52:13.077Z,14.30
2023-05-03T17:55:02.745Z,14.30
2023-05-03T17:57:52.923Z,14.30
2023-05-03T18:00:41.625Z,14.10
2023-05-03T18:03:31.587Z,14.00
2023-05-03T18:06:20.492Z,13.90
2023-05-03T18:09:09.286Z,13.80
2023-05-03T18:11:59.749Z,13.80
2023-05-03T18:14:50.787Z,13.70
2023-05-03T18:17:39.579Z,13.70
2023-05-03T18:20:28.510Z,13.60
2023-05-03T18:23:17.380Z,13.50
2023-05-03T18:26:07.766Z,13.40
2023-05-03T18:28:56.974Z,13.30
2023-05-03T18:31:47.202Z,13.30
2023-05-03T18:34:37.587Z,13.20
2023-05-03T18:37:26.510Z,13.00
2023-05-03T18:40:16.373Z,12.90
2023-05-03T18:43:05.039Z,12.80
2023-05-03T18:45:53.937Z,12.70
2023-05-03T18:48:44.183Z,12.60
2023-05-03T18:51:32.974Z,12.50
2023-05-03T18:54:21.640Z,12.40
2023-05-03T18:57:11.785Z,12.20
2023-05-03T19:00:01.465Z,12.00
2023-05-03T19:02:50.359Z,11.90
2023-05-03T19:05:40.592Z,11.70
2023-05-03T19:08:29.420Z,11.50
2023-05-03T19:11:18.504Z,11.50
2023-05-03T19:14:07.249Z,11.50
2023-05-03T19:16:56.172Z,11.40
2023-05-03T19:19:45.149Z,11.40
2023-05-03T19:22:35.269Z,11.30
2023-05-03T19:25:24.010Z,11.30
2023-05-03T19:28:12.673Z,11.40
2023-05-03T19:31:04.540Z,11.30
2023-05-03T19:33:53.222Z,11.30
2023-05-03T19:36:41.923Z,11.30
2023-05-03T19:39:35.616Z,11.30
2023-05-03T19:42:24.366Z,11.30
2023-05-03T19:45:13.825Z,11.30
2023-05-03T19:48:02.528Z,11.30
2023-05-03T19:50:51.942Z,11.20
2023-05-03T19:53:40.766Z,11.00
2023-05-03T19:56:31.006Z,11.00
2023-05-03T19:59:19.691Z,11.00
2023-05-03T20:02:08.806Z,10.90
2023-05-03T20:04:57.572Z,10.80
2023-05-03T20:07:47.226Z,10.80
2023-05-03T20:10:37.180Z,10.80
2023-05-03T20:13:27.794Z,10.70
2023-05-03T20:16:18.234Z,10.70
2023-05-03T20:19:08.069Z,10.70
2023-05-03T20:40:20.499Z,10.60
2023-05-03T20:43:10.362Z,10.60
2023-05-03T20:45:59.612Z,10.70
2023-05-03T20:48:48.590Z,10.80
2023-05-03T20:52:22.488Z,10.80
2023-05-03T20:58:45.120Z,10.90
2023-05-03T21:01:48.059Z,10.90
2023-05-03T21:16:16.419Z,10.60
2023-05-03T21:19:33.401Z,10.40
2023-05-03T21:22:27.569Z,10.40
2023-05-03T21:25:22.195Z,10.40
2023-05-03T21:31:54.775Z,10.20
2023-05-03T21:34:54.153Z,10.20
2023-05-03T21:37:49.220Z,10.20
2023-05-03T21:40:42.204Z,10.00
2023-05-03T21:43:33.297Z,10.00
2023-05-03T21:46:24.530Z,9.90
2023-05-03T21:49:23.972Z,9.80
2023-05-03T21:52:15.605Z,9.60
2023-05-03T21:55:04.654Z,9.50
2023-05-03T21:57:53.392Z,9.40
2023-05-03T22:00:44.330Z,9.30
2023-05-03T22:03:33.126Z,9.20
2023-05-03T22:06:23.300Z,9.20
2023-05-03T22:09:12.215Z,9.10
2023-05-03T22:12:05.986Z,9.00
2023-05-03T22:15:00.945Z,9.00
2023-05-03T22:17:49.740Z,8.90
2023-05-03T22:20:38.412Z,8.90
2023-05-03T22:23:28.597Z,8.90
2023-05-03T22:26:17.423Z,9.00
2023-05-03T22:29:06.586Z,9.00
2023-05-03T22:31:55.413Z,9.00
2023-05-03T22:34:45.112Z,9.00
2023-05-03T22:37:33.859Z,8.90
2023-05-03T22:40:24.371Z,8.80
2023-05-03T22:43:13.452Z,8.70
2023-05-03T22:46:03.334Z,8.70
2023-05-03T22:48:52.199Z,8.60
2023-05-03T22:51:40.900Z,8.50
2023-05-03T22:54:29.674Z,8.50
2023-05-03T22:57:19.876Z,8.40
2023-05-03T23:00:11.485Z,8.40
2023-05-03T23:03:00.348Z,8.30
2023-05-03T23:05:49.900Z,8.30
2023-05-03T23:08:38.748Z,8.20
2023-05-03T23:11:27.508Z,8.20
2023-05-03T23:14:17.821Z,8.20
2023-05-03T23:17:06.783Z,8.20
2023-05-03T23:19:55.949Z,8.10
2023-05-03T23:22:45.125Z,8.10
2023-05-03T23:25:34.385Z,8.10
2023-05-03T23:28:24.076Z,8.10
2023-05-03T23:31:14.815Z,8.10
2023-05-03T23:34:05.298Z,8.10
2023-05-03T23:36:53.994Z,8.10
2023-05-03T23:39:45.681Z,8.10
2023-05-03T23:42:34.577Z,8.00
2023-05-03T23:45:23.234Z,8.00
2023-05-03T23:48:13.362Z,8.00
2023-05-03T23:51:02.077Z,7.90
2023-05-03T23:53:50.764Z,7.90
2023-05-03T23:56:39.517Z,7.90
2023-05-03T23:59:28.289Z,7.90
